Time;durP1;ratioP1;P1;durP2;ratioP2;P2;SDS_P1;SDS_P2;PMS_P1;PMS_P2;Temp;Humidity;BMP_temperature;BMP_pressure;BME280_temperature;BME280_humidity;BME280_pressure;Samples;Min_cycle;Max_cycle;Signal;HPM_P1;HPM_P2
2024/01/02 00:02:25;;;;;;;0.00;0.00;;;;;;;10.96;100.00;97764.47;4961675;28;20114;-83
2024/01/02 00:04:50;;;;;;;0.00;0.00;;;;;;;10.88;100.00;97765.38;4963712;28;20078;-83
2024/01/02 00:07:15;;;;;;;0.00;0.00;;;;;;;11.01;100.00;97785.38;4930645;28;20023;-82
2024/01/02 00:09:41;;;;;;;0.00;0.00;;;;;;;10.75;100.00;97758.22;4964068;28;20027;-82
2024/01/02 00:12:07;;;;;;;0.00;0.00;;;;;;;10.79;100.00;97770.91;4940664;28;20050;-81
2024/01/02 00:14:33;;;;;;;0.00;0.00;;;;;;;11.04;100.00;97816.72;4972974;28;20133;-82
2024/01/02 00:16:59;;;;;;;0.00;0.00;;;;;;;10.96;100.00;97791.81;4945949;28;20500;-82
2024/01/02 00:19:24;;;;;;;0.00;0.00;;;;;;;10.96;100.00;97796.50;4957841;28;20038;-83
2024/01/02 00:21:59;;;;;;;0.00;0.00;;;;;;;11.03;100.00;97817.88;4950358;28;20027;-82
2024/01/02 00:24:27;;;;;;;0.00;0.00;;;;;;;10.94;100.00;97810.50;4947278;28;20034;-84
2024/01/02 00:26:55;;;;;;;0.00;0.00;;;;;;;10.87;100.00;97804.75;4945969;28;20033;-83
2024/01/02 00:29:20;;;;;;;0.00;0.00;;;;;;;11.00;100.00;97830.25;4963044;28;20077;-85
2024/01/02 00:31:48;;;;;;;0.00;0.00;;;;;;;10.95;100.00;97834.00;4929373;28;20051;-85
2024/01/02 00:34:13;;;;;;;0.00;0.00;;;;;;;10.83;100.00;97812.03;4981224;28;20014;-83
2024/01/02 00:36:39;;;;;;;0.00;0.00;;;;;;;10.89;100.00;97829.84;4948832;28;20031;-81
2024/01/02 00:39:08;;;;;;;0.00;0.00;;;;;;;10.90;100.00;97842.38;4935219;29;20035;-82
2024/01/02 00:41:33;;;;;;;0.00;0.00;;;;;;;10.73;100.00;97826.06;4962699;28;20030;-82
2024/01/02 00:43:59;;;;;;;0.00;0.00;;;;;;;10.73;100.00;97842.47;4973533;28;20062;-82
2024/01/02 00:46:24;;;;;;;0.00;0.00;;;;;;;10.76;100.00;97833.63;4970176;28;20498;-82
2024/01/02 00:48:50;;;;;;;0.08;0.08;;;;;;;10.67;100.00;97838.34;4918486;28;20328;-83
2024/01/02 00:51:16;;;;;;;0.00;0.00;;;;;;;10.64;100.00;97837.06;4930147;28;20034;-84
2024/01/02 00:53:43;;;;;;;0.10;0.10;;;;;;;10.67;100.00;97843.81;4960698;28;20022;-83
2024/01/02 00:56:09;;;;;;;0.00;0.00;;;;;;;10.58;100.00;97820.03;4951828;28;20023;-83
2024/01/02 00:58:34;;;;;;;0.00;0.00;;;;;;;10.57;100.00;97829.41;4938273;28;20033;-82
2024/01/02 01:01:00;;;;;;;0.00;0.00;;;;;;;10.59;100.00;97827.13;4958691;28;20025;-82
2024/01/02 01:03:25;;;;;;;0.00;0.00;;;;;;;10.51;100.00;97829.91;4945741;28;20031;-81
2024/01/02 01:05:59;;;;;;;0.00;0.00;;;;;;;10.40;100.00;97824.81;4945029;28;20094;-81
2024/01/02 01:08:27;;;;;;;0.00;0.00;;;;;;;10.52;100.00;97858.84;4973475;28;20030;-80
2024/01/02 01:11:10;;;;;;;0.00;0.00;;;;;;;10.49;100.00;97865.75;4941621;28;20035;-83
2024/01/02 01:13:38;;;;;;;0.00;0.00;;;;;;;10.16;100.00;97830.78;4969082;28;20033;-83
2024/01/02 01:16:04;;;;;;;0.00;0.00;;;;;;;10.12;100.00;97846.25;4972560;28;20026;-82
2024/01/02 01:18:47;;;;;;;0.00;0.00;;;;;;;10.18;100.00;97855.88;4947584;28;21270;-83
2024/01/02 01:21:12;;;;;;;0.00;0.00;;;;;;;10.10;100.00;97862.16;4983529;28;20038;-83
2024/01/02 01:23:38;;;;;;;0.00;0.00;;;;;;;10.06;100.00;97869.38;4966236;28;20024;-83
2024/01/02 01:26:03;;;;;;;0.00;0.00;;;;;;;10.14;100.00;97891.19;4953692;28;20026;-85
2024/01/02 01:28:32;;;;;;;0.00;0.00;;;;;;;10.17;100.00;97906.16;4951564;28;20031;-83
2024/01/02 01:30:57;;;;;;;0.00;0.00;;;;;;;10.10;100.00;97898.47;4960829;28;20068;-83
2024/01/02 01:33:25;;;;;;;0.00;0.00;;;;;;;9.94;100.00;97881.78;4924121;28;20029;-82
2024/01/02 01:35:51;;;;;;;0.00;0.00;;;;;;;9.94;100.00;97878.25;4962556;28;20030;-88
2024/01/02 01:38:24;;;;;;;0.00;0.00;;;;;;;10.02;100.00;97895.75;4973820;28;20054;-86
2024/01/02 01:40:49;;;;;;;0.00;0.00;;;;;;;9.98;100.00;97883.88;4973196;28;20122;-84
2024/01/02 01:43:40;;;;;;;0.00;0.00;;;;;;;10.00;100.00;97895.25;4958757;28;20035;-85
2024/01/02 01:46:14;;;;;;;0.00;0.00;;;;;;;10.24;100.00;97911.91;4958181;28;20050;-85
2024/01/02 01:48:40;;;;;;;0.00;0.00;;;;;;;10.07;100.00;97871.78;4963436;28;20092;-82
2024/01/02 01:51:07;;;;;;;0.00;0.00;;;;;;;10.29;100.00;97909.03;4979156;28;20055;-81
2024/01/02 01:53:40;;;;;;;0.00;0.00;;;;;;;10.34;100.00;97908.06;4957759;28;20023;-82
2024/01/02 01:56:15;;;;;;;0.00;0.00;;;;;;;10.21;100.00;97887.19;4988506;28;20023;-84
2024/01/02 01:59:09;;;;;;;0.00;0.00;;;;;;;10.30;100.00;97913.34;4995747;28;20060;-85
2024/01/02 02:01:45;;;;;;;0.00;0.00;;;;;;;10.41;100.00;97923.94;4989383;28;20023;-84
2024/01/02 02:04:18;;;;;;;0.00;0.00;;;;;;;10.42;100.00;97933.75;4967599;28;20022;-84
2024/01/02 02:06:56;;;;;;;;;;;;;;;;;;;;;
2024/01/02 02:09:24;;;;;;;0.00;0.00;;;;;;;10.21;100.00;97874.31;4977224;28;20102;-84
2024/01/02 02:11:50;;;;;;;0.00;0.00;;;;;;;10.35;100.00;97895.19;4963719;28;20022;-83
2024/01/02 02:14:28;;;;;;;0.00;0.00;;;;;;;10.43;100.00;97902.56;4959535;28;20045;-82
2024/01/02 02:17:19;;;;;;;0.00;0.00;;;;;;;10.45;100.00;97911.25;4957709;28;20019;-81
2024/01/02 02:19:45;;;;;;;0.00;0.00;;;;;;;10.36;100.00;97907.75;4967099;28;20378;-84
2024/01/02 02:22:15;;;;;;;0.00;0.00;;;;;;;10.48;100.00;97935.19;4962345;28;20025;-81
2024/01/02 02:24:43;;;;;;;0.00;0.00;;;;;;;10.31;100.00;97909.47;4956206;28;20031;-82
2024/01/02 02:27:16;;;;;;;0.00;0.00;;;;;;;10.33;100.00;97916.56;4958461;28;20023;-84
2024/01/02 02:29:49;;;;;;;0.00;0.00;;;;;;;10.24;100.00;97922.84;4972882;28;20535;-84
2024/01/02 02:32:14;;;;;;;0.00;0.00;;;;;;;10.50;100.00;97979.38;4961538;28;20047;-85
2024/01/02 02:34:40;;;;;;;0.00;0.00;;;;;;;10.36;100.00;97948.72;4944944;28;20038;-83
2024/01/02 02:37:05;;;;;;;0.00;0.00;;;;;;;10.44;100.00;97961.53;4948702;28;20591;-83
2024/01/02 02:39:31;;;;;;;0.00;0.00;;;;;;;10.50;100.00;97954.78;4968738;28;20057;-85
2024/01/02 02:41:56;;;;;;;0.00;0.00;;;;;;;10.45;100.00;97946.75;4970190;28;20058;-84
2024/01/02 02:44:22;;;;;;;0.00;0.00;;;;;;;10.34;100.00;97940.03;4970844;28;20077;-81
2024/01/02 02:46:47;;;;;;;0.00;0.00;;;;;;;10.34;100.00;97950.94;4928379;28;20035;-82
2024/01/02 02:49:13;;;;;;;0.00;0.00;;;;;;;10.48;100.00;97978.88;4944977;28;20067;-82
2024/01/02 02:51:38;;;;;;;0.00;0.00;;;;;;;10.42;100.00;97966.53;4970549;28;20042;-82
2024/01/02 02:54:03;;;;;;;0.00;0.00;;;;;;;10.46;100.00;97983.88;4934123;28;20440;-83
2024/01/02 02:56:29;;;;;;;0.00;0.00;;;;;;;10.42;100.00;97970.06;4978609;28;20123;-80
2024/01/02 02:58:54;;;;;;;0.00;0.00;;;;;;;10.24;100.00;97939.22;4961886;28;20023;-86
2024/01/02 03:01:26;;;;;;;0.00;0.00;;;;;;;10.33;100.00;97961.06;4922633;29;20031;-84
2024/01/02 03:03:51;;;;;;;0.00;0.00;;;;;;;10.19;100.00;97966.72;4969944;28;20058;-83
2024/01/02 03:06:24;;;;;;;0.00;0.00;;;;;;;10.01;100.00;97963.19;4929363;28;20394;-84
2024/01/02 03:08:57;;;;;;;0.00;0.00;;;;;;;9.71;100.00;97924.84;4969723;28;20106;-82
2024/01/02 03:11:25;;;;;;;0.00;0.00;;;;;;;9.59;100.00;97917.28;4975713;28;20033;-84
2024/01/02 03:13:50;;;;;;;0.00;0.00;;;;;;;9.67;100.00;97931.25;4965833;28;20373;-81
2024/01/02 03:16:37;;;;;;;0.10;0.10;;;;;;;9.74;100.00;97951.47;4957681;28;20015;-82
2024/01/02 03:19:02;;;;;;;0.00;0.00;;;;;;;9.44;100.00;97912.31;4953429;28;20240;-81
2024/01/02 03:21:28;;;;;;;0.00;0.00;;;;;;;9.64;100.00;97934.59;4980818;28;20484;-82
2024/01/02 03:24:07;;;;;;;0.00;0.00;;;;;;;9.85;100.00;97962.88;4947896;28;20019;-84
2024/01/02 03:26:40;;;;;;;0.00;0.00;;;;;;;9.83;100.00;97943.28;4980857;28;20030;-85
2024/01/02 03:29:15;;;;;;;0.00;0.00;;;;;;;9.99;100.00;97961.91;4966891;28;20105;-84
2024/01/02 03:31:54;;;;;;;0.00;0.00;;;;;;;9.91;100.00;97945.19;4980907;28;20505;-83
2024/01/02 03:34:19;;;;;;;0.00;0.00;;;;;;;9.80;100.00;97930.28;4952214;28;20031;-83
2024/01/02 03:36:45;;;;;;;0.10;0.10;;;;;;;9.93;100.00;97939.44;4968942;28;20428;-83
2024/01/02 03:39:10;;;;;;;0.00;0.00;;;;;;;10.10;100.00;97961.28;4934400;29;20027;-82
2024/01/02 03:41:38;;;;;;;0.00;0.00;;;;;;;10.00;100.00;97944.41;4970740;28;20014;-83
2024/01/02 03:44:08;;;;;;;0.00;0.00;;;;;;;10.20;100.00;97971.03;4966714;28;20068;-83
2024/01/02 03:46:36;;;;;;;0.00;0.00;;;;;;;9.98;100.00;97916.63;4991595;28;20034;-84
2024/01/02 03:49:02;;;;;;;0.00;0.00;;;;;;;10.08;100.00;97924.47;4964756;28;20122;-81
2024/01/02 03:51:27;;;;;;;0.03;0.03;;;;;;;10.12;100.00;97928.97;4965737;28;20026;-85
2024/01/02 03:53:53;;;;;;;0.00;0.00;;;;;;;10.23;100.00;97936.81;4935650;28;20030;-84
2024/01/02 03:56:18;;;;;;;0.00;0.00;;;;;;;10.13;100.00;97929.75;4948456;28;20023;-85
2024/01/02 03:58:44;;;;;;;0.00;0.00;;;;;;;10.20;100.00;97923.81;4943547;28;20548;-84
2024/01/02 04:01:16;;;;;;;0.00;0.00;;;;;;;10.11;100.00;97915.63;4965908;28;20406;-84
2024/01/02 04:04:02;;;;;;;0.10;0.10;;;;;;;9.93;100.00;97885.63;4953519;28;20023;-83
2024/01/02 04:06:39;;;;;;;0.00;0.00;;;;;;;10.03;100.00;97897.34;4946496;28;20098;-85
2024/01/02 04:09:14;;;;;;;0.00;0.00;;;;;;;10.08;100.00;97911.63;4971144;28;20026;-81
2024/01/02 04:11:41;;;;;;;0.00;0.00;;;;;;;9.90;100.00;97878.09;4936191;28;20038;-84
2024/01/02 04:14:06;;;;;;;0.00;0.00;;;;;;;10.01;100.00;97921.44;4965445;28;20061;-84
2024/01/02 04:16:39;;;;;;;0.00;0.00;;;;;;;9.79;100.00;97882.28;4970994;28;20019;-86
2024/01/02 04:19:09;;;;;;;0.00;0.00;;;;;;;9.95;100.00;97920.81;4971600;28;20026;-85
2024/01/02 04:22:06;;;;;;;0.00;0.00;;;;;;;9.73;100.00;97872.66;4947542;28;20027;-84
2024/01/02 04:24:52;;;;;;;0.00;0.00;;;;;;;9.82;100.00;97911.66;4945483;28;20557;-84
2024/01/02 04:27:19;;;;;;;0.00;0.00;;;;;;;9.71;100.00;97886.63;4958980;28;20042;-83
2024/01/02 04:29:44;;;;;;;0.00;0.00;;;;;;;9.56;100.00;97857.91;4955829;28;20043;-84
2024/01/02 04:32:10;;;;;;;0.00;0.00;;;;;;;9.63;100.00;97862.88;4953931;28;20378;-84
2024/01/02 04:34:36;;;;;;;0.00;0.00;;;;;;;9.74;100.00;97880.53;4962629;28;20042;-85
2024/01/02 04:37:04;;;;;;;0.00;0.00;;;;;;;9.58;100.00;97854.88;4956833;28;20130;-86
2024/01/02 04:39:37;;;;;;;0.00;0.00;;;;;;;9.68;100.00;97870.09;4953038;28;20058;-86
2024/01/02 04:42:03;;;;;;;0.00;0.00;;;;;;;9.63;100.00;97873.00;4971079;28;20026;-85
2024/01/02 04:44:33;;;;;;;0.00;0.00;;;;;;;9.55;100.00;97861.75;4955678;28;20002;-85
2024/01/02 04:46:58;;;;;;;0.00;0.00;;;;;;;9.51;100.00;97866.25;4949122;28;20011;-86
2024/01/02 04:49:24;;;;;;;0.00;0.00;;;;;;;9.58;100.00;97877.47;4972163;28;20037;-83
2024/01/02 04:52:16;;;;;;;0.00;0.00;;;;;;;9.70;100.00;97895.13;4949340;28;20038;-76
2024/01/02 04:54:49;;;;;;;0.00;0.00;;;;;;;9.53;100.00;97864.00;4971792;28;20029;-77
2024/01/02 04:57:16;;;;;;;0.00;0.00;;;;;;;9.57;100.00;97873.13;4971137;28;20080;-77
2024/01/02 04:59:44;;;;;;;0.00;0.00;;;;;;;9.75;100.00;97893.06;4938231;28;20030;-77
2024/01/02 05:02:10;;;;;;;0.00;0.00;;;;;;;9.73;100.00;97880.84;4966673;28;20034;-79
2024/01/02 05:04:36;;;;;;;0.00;0.00;;;;;;;9.69;100.00;97860.78;4927118;28;20092;-78
2024/01/02 05:07:02;;;;;;;0.00;0.00;;;;;;;9.79;100.00;97882.28;4939127;28;20508;-77
2024/01/02 05:09:27;;;;;;;0.10;0.10;;;;;;;9.72;100.00;97860.13;4931963;29;20049;-79
2024/01/02 05:11:56;;;;;;;0.00;0.00;;;;;;;9.81;100.00;97860.91;4952180;28;20038;-78
2024/01/02 05:14:21;;;;;;;0.00;0.00;;;;;;;9.81;100.00;97862.84;4948893;28;20033;-78
2024/01/02 05:16:50;;;;;;;0.00;0.00;;;;;;;9.73;100.00;97851.63;4941696;28;20093;-78
2024/01/02 05:19:18;;;;;;;0.00;0.00;;;;;;;9.72;100.00;97843.75;4956256;28;20481;-76
2024/01/02 05:21:53;;;;;;;0.00;0.00;;;;;;;9.67;100.00;97828.34;4972725;28;20030;-77
2024/01/02 05:24:18;;;;;;;0.00;0.00;;;;;;;9.71;100.00;97842.97;4949281;28;20613;-77
2024/01/02 05:26:43;;;;;;;0.00;0.00;;;;;;;9.70;100.00;97843.28;4938730;28;20026;-77
2024/01/02 05:29:09;;;;;;;0.00;0.00;;;;;;;9.87;100.00;97858.81;4945875;28;20111;-76
2024/01/02 05:31:34;;;;;;;0.00;0.00;;;;;;;9.86;100.00;97855.31;4938452;28;20097;-77
2024/01/02 05:33:59;;;;;;;0.00;0.00;;;;;;;9.94;100.00;97865.41;4954094;28;20042;-77
2024/01/02 05:36:25;;;;;;;0.00;0.00;;;;;;;9.88;100.00;97853.03;4956075;28;20113;-76
2024/01/02 05:38:50;;;;;;;0.00;0.00;;;;;;;9.95;100.00;97853.34;4921763;28;20042;-77
2024/01/02 05:41:16;;;;;;;0.00;0.00;;;;;;;9.95;100.00;97842.41;4937548;28;20118;-76
2024/01/02 05:43:41;;;;;;;0.00;0.00;;;;;;;9.85;100.00;97828.31;4949614;28;20053;-77
2024/01/02 05:46:07;;;;;;;0.00;0.00;;;;;;;9.87;100.00;97821.44;4930816;28;20046;-76
2024/01/02 05:48:35;;;;;;;0.00;0.00;;;;;;;9.80;100.00;97807.47;4908568;28;20123;-77
2024/01/02 05:51:03;;;;;;;0.00;0.00;;;;;;;9.89;100.00;97819.16;4964738;28;20031;-76
2024/01/02 05:53:36;;;;;;;0.00;0.00;;;;;;;9.77;100.00;97792.53;4945296;28;20028;-77
2024/01/02 05:56:01;;;;;;;0.00;0.00;;;;;;;9.93;100.00;97811.13;4968625;28;20041;-77
2024/01/02 05:58:27;;;;;;;0.00;0.00;;;;;;;9.90;100.00;97806.31;4952554;28;20036;-78
2024/01/02 06:00:53;;;;;;;0.00;0.00;;;;;;;9.87;100.00;97802.31;4918628;28;20576;-77
2024/01/02 06:03:19;;;;;;;0.00;0.00;;;;;;;9.89;100.00;97802.78;4927280;28;20121;-77
2024/01/02 06:05:56;;;;;;;0.00;0.00;;;;;;;9.89;100.00;97800.06;4923302;28;20054;-77
2024/01/02 06:08:21;;;;;;;0.00;0.00;;;;;;;9.87;100.00;97796.88;4936792;28;20104;-76
2024/01/02 06:10:47;;;;;;;0.00;0.00;;;;;;;9.94;100.00;97793.63;4936425;28;20026;-77
2024/01/02 06:13:13;;;;;;;0.00;0.00;;;;;;;9.82;100.00;97761.53;4961879;28;20038;-79
2024/01/02 06:15:49;;;;;;;0.00;0.00;;;;;;;9.95;100.00;97773.38;4973320;28;20489;-78
2024/01/02 06:18:15;;;;;;;0.00;0.00;;;;;;;9.82;100.00;97745.16;4944698;29;20042;-78
2024/01/02 06:20:40;;;;;;;0.00;0.00;;;;;;;9.89;100.00;97745.47;4954622;28;20026;-77
2024/01/02 06:23:06;;;;;;;0.00;0.00;;;;;;;9.92;100.00;97736.63;4967379;28;20034;-77
2024/01/02 06:25:43;;;;;;;0.00;0.00;;;;;;;9.95;100.00;97733.22;4926225;28;20669;-78
2024/01/02 06:28:11;;;;;;;0.00;0.00;;;;;;;9.89;100.00;97718.16;4927090;28;20023;-77
2024/01/02 06:30:36;;;;;;;0.00;0.00;;;;;;;9.92;100.00;97716.72;4933075;28;20583;-76
2024/01/02 06:33:17;;;;;;;;;;;;;;;;;;;;;
2024/01/02 06:35:58;;;;;;;0.00;0.00;;;;;;;9.98;100.00;97698.22;4945123;28;20031;-77
2024/01/02 06:38:30;;;;;;;0.00;0.00;;;;;;;9.93;100.00;97685.56;4969407;28;20029;-78
2024/01/02 06:41:14;;;;;;;0.00;0.00;;;;;;;9.94;100.00;97681.69;4950297;28;20045;-79
2024/01/02 06:43:42;;;;;;;0.00;0.00;;;;;;;9.89;100.00;97674.50;4945651;28;20041;-75
2024/01/02 06:46:17;;;;;;;;;;;;;;;;;;;;;
2024/01/02 06:48:45;;;;;;;0.00;0.00;;;;;;;9.99;100.00;97672.50;4982050;28;20141;-76
2024/01/02 06:51:11;;;;;;;0.00;0.00;;;;;;;9.98;100.00;97654.56;4960968;28;20027;-76
2024/01/02 06:53:54;;;;;;;0.00;0.00;;;;;;;10.13;100.00;97673.06;4960637;28;20022;-77
2024/01/02 06:56:37;;;;;;;0.00;0.00;;;;;;;9.85;100.00;97629.88;4976008;28;20026;-76
2024/01/02 06:59:07;;;;;;;0.00;0.00;;;;;;;10.03;100.00;97643.41;4955046;28;20038;-75
2024/01/02 07:01:45;;;;;;;;;;;;;;;;;;;;;
2024/01/02 07:04:12;;;;;;;0.00;0.00;;;;;;;9.94;100.00;97638.84;4954052;28;20038;-77
2024/01/02 07:06:58;;;;;;;0.00;0.00;;;;;;;10.04;100.00;97636.84;4967181;28;20385;-78
2024/01/02 07:09:23;;;;;;;0.10;0.10;;;;;;;10.09;100.00;97644.81;4957142;28;20422;-78
2024/01/02 07:11:56;;;;;;;0.00;0.00;;;;;;;10.09;100.00;97650.28;4939715;29;20037;-77
2024/01/02 07:14:23;;;;;;;0.00;0.00;;;;;;;10.04;100.00;97620.47;4939439;28;20027;-76
2024/01/02 07:16:48;;;;;;;0.00;0.00;;;;;;;10.00;100.00;97611.31;4965780;28;20032;-76
2024/01/02 07:19:13;;;;;;;0.00;0.00;;;;;;;10.06;100.00;97621.72;4933574;28;20590;-79
2024/01/02 07:21:41;;;;;;;0.00;0.00;;;;;;;10.21;100.00;97631.28;4937827;28;20031;-78
2024/01/02 07:24:35;;;;;;;;;;;;;;;;;;;;;
2024/01/02 07:27:01;;;;;;;0.00;0.00;;;;;;;10.00;100.00;97581.28;4971841;28;20104;-79
2024/01/02 07:29:29;;;;;;;0.00;0.00;;;;;;;10.18;100.00;97603.81;4959398;28;20462;-81
2024/01/02 07:36:11;;;;;;;0.00;0.00;;;;;;;10.24;100.00;97591.56;4899934;29;20043;-79
2024/01/02 07:38:42;;;;;;;0.00;0.00;;;;;;;10.06;100.00;97560.84;4911353;28;20067;-79
2024/01/02 07:41:10;;;;;;;0.00;0.00;;;;;;;9.96;100.00;97549.22;4968244;28;20031;-76
2024/01/02 07:43:38;;;;;;;0.00;0.00;;;;;;;10.09;100.00;97557.44;4965055;28;20052;-78
2024/01/02 07:46:23;;;;;;;;;;;;;;;;;;;;;
2024/01/02 07:48:49;;;;;;;0.00;0.00;;;;;;;10.14;100.00;97549.06;4950550;28;20037;-77
2024/01/02 07:51:23;;;;;;;0.00;0.00;;;;;;;10.05;100.00;97540.16;4973433;28;20033;-78
2024/01/02 07:53:49;;;;;;;0.00;0.00;;;;;;;10.04;100.00;97522.97;4949427;28;20039;-74
2024/01/02 07:56:18;;;;;;;0.00;0.00;;;;;;;10.11;100.00;97516.97;4965968;28;20361;-78
2024/01/02 07:58:59;;;;;;;0.00;0.00;;;;;;;10.01;100.00;97479.16;4959101;28;20501;-77
2024/01/02 08:02:31;;;;;;;0.00;0.00;;;;;;;10.33;100.00;97504.09;4959617;28;20761;-79
2024/01/02 08:04:53;;;;;;;0.00;0.00;;;;;;;10.23;100.00;97478.00;4948720;28;20112;-76
2024/01/02 08:07:21;;;;;;;0.00;0.00;;;;;;;10.16;100.00;97464.09;4977490;28;20102;-78
2024/01/02 08:09:47;;;;;;;0.00;0.00;;;;;;;10.37;100.00;97491.41;4961512;28;20373;-77
2024/01/02 08:12:13;;;;;;;0.00;0.00;;;;;;;10.24;100.00;97461.28;4953959;28;20031;-78
2024/01/02 08:14:40;;;;;;;0.00;0.00;;;;;;;10.26;100.00;97475.38;4940672;28;20047;-76
2024/01/02 08:17:06;;;;;;;0.00;0.00;;;;;;;10.25;100.00;97473.00;4972997;28;20026;-76
2024/01/02 08:19:31;;;;;;;0.00;0.00;;;;;;;10.27;100.00;97482.44;4954876;28;20038;-76
2024/01/02 08:21:56;;;;;;;0.00;0.00;;;;;;;10.23;100.00;97469.81;4941280;28;20027;-76
2024/01/02 08:24:22;;;;;;;0.00;0.00;;;;;;;10.20;100.00;97465.81;4930873;28;20038;-78
2024/01/02 08:26:47;;;;;;;0.00;0.00;;;;;;;10.14;100.00;97450.78;4926987;28;20042;-76
2024/01/02 08:29:18;;;;;;;0.00;0.00;;;;;;;10.21;100.00;97445.56;4956466;28;20031;-76
2024/01/02 08:31:46;;;;;;;0.00;0.00;;;;;;;10.21;100.00;97429.19;4953112;28;20076;-77
2024/01/02 08:34:13;;;;;;;0.00;0.00;;;;;;;10.14;100.00;97412.56;4949131;28;20039;-76
2024/01/02 08:36:43;;;;;;;0.00;0.00;;;;;;;10.17;100.00;97406.41;4909843;28;20133;-78
2024/01/02 08:39:32;;;;;;;0.00;0.00;;;;;;;10.01;100.00;97380.88;4953821;28;20024;-77
2024/01/02 08:41:57;;;;;;;0.00;0.00;;;;;;;10.08;100.00;97386.59;4959684;28;20027;-77
2024/01/02 08:44:30;;;;;;;0.00;0.00;;;;;;;10.16;100.00;97393.09;4988695;28;20029;-78
2024/01/02 08:47:01;;;;;;;0.00;0.00;;;;;;;10.33;100.00;97390.19;4956632;28;20039;-76
2024/01/02 08:49:53;;;;;;;0.00;0.00;;;;;;;10.21;100.00;97360.91;4970827;28;20042;-76
2024/01/02 08:52:18;;;;;;;0.00;0.00;;;;;;;10.38;100.00;97367.34;4959306;28;20610;-77
2024/01/02 08:54:44;;;;;;;0.00;0.00;;;;;;;10.40;100.00;97365.09;4974541;28;20057;-76
2024/01/02 08:57:09;;;;;;;0.00;0.00;;;;;;;10.33;100.00;97334.78;4954998;28;20089;-76
2024/01/02 08:59:36;;;;;;;0.00;0.00;;;;;;;10.39;100.00;97336.16;4954888;28;20122;-76
2024/01/02 09:02:02;;;;;;;0.00;0.00;;;;;;;10.41;100.00;97312.84;4944549;28;20026;-76
2024/01/02 09:04:42;;;;;;;0.00;0.00;;;;;;;10.36;100.00;97304.06;4957429;28;20488;-76
2024/01/02 09:07:31;;;;;;;0.00;0.00;;;;;;;10.42;100.00;97298.03;4936196;28;20039;-76
2024/01/02 09:10:14;;;;;;;0.00;0.00;;;;;;;10.44;100.00;97292.22;4957452;28;20113;-77
2024/01/02 09:12:46;;;;;;;0.00;0.00;;;;;;;10.38;100.00;97266.28;4922757;28;20022;-77
2024/01/02 09:15:22;;;;;;;;;;;;;;;;;;;;;
2024/01/02 09:17:48;;;;;;;0.00;0.00;;;;;;;10.56;100.00;97270.38;4968413;28;20021;-79
2024/01/02 09:20:26;;;;;;;0.00;0.00;;;;;;;10.82;100.00;97310.22;4961032;28;20050;-79
2024/01/02 09:22:54;;;;;;;0.00;0.00;;;;;;;10.72;100.00;97272.38;4941969;28;20027;-77
2024/01/02 09:25:51;;;;;;;;;;;;;;;;;;;;;
2024/01/02 09:28:20;;;;;;;0.00;0.00;;;;;;;10.90;100.00;97265.53;4959719;28;20079;-79
2024/01/02 09:31:02;;;;;;;0.00;0.00;;;;;;;10.81;100.00;97249.25;4975409;28;20097;-78
2024/01/02 09:33:57;;;;;;;0.00;0.00;;;;;;;10.73;100.00;97217.41;4948405;28;20018;-78
2024/01/02 09:36:34;;;;;;;0.10;0.10;;;;;;;10.85;100.00;97222.03;4960195;28;20041;-78
2024/01/02 09:39:12;;;;;;;0.00;0.00;;;;;;;10.64;100.00;97190.22;4934911;28;20383;-79
2024/01/02 09:42:03;;;;;;;0.00;0.00;;;;;;;10.82;100.00;97195.41;4968138;28;20031;-78
2024/01/02 09:45:07;;;;;;;0.00;0.00;;;;;;;10.97;100.00;97241.13;4981223;28;20030;-79
2024/01/02 09:48:24;;;;;;;;;;;;;;;;;;;;;
2024/01/02 09:51:05;;;;;;;0.00;0.00;;;;;;;11.01;100.00;97175.63;4973049;28;20114;-77
2024/01/02 09:54:16;;;;;;;;;;;;;;;;;;;;;
2024/01/02 09:56:55;;;;;;;0.00;0.00;;;;;;;10.96;100.00;97162.19;4982303;28;20454;-78
2024/01/02 09:59:38;;;;;;;0.00;0.00;;;;;;;10.91;100.00;97155.06;4978843;28;20006;-78
2024/01/02 10:02:30;;;;;;;0.00;0.00;;;;;;;10.94;100.00;97153.56;4975674;28;20022;-77
2024/01/02 10:05:31;;;;;;;;;;;;;;;;;;;;;
2024/01/02 10:12:10;;;;;;;0.00;0.00;;;;;;;11.09;100.00;97122.72;4967814;28;20027;-77
2024/01/02 10:14:55;;;;;;;0.00;0.00;;;;;;;10.97;100.00;97082.56;4966905;28;20049;-77
2024/01/02 10:18:04;;;;;;;0.00;0.00;;;;;;;10.82;100.00;97034.16;4960490;28;20106;-77
2024/01/02 10:21:08;;;;;;;0.00;0.00;;;;;;;11.07;100.00;97066.78;4977084;28;20122;-78
2024/01/02 10:24:18;;;;;;;0.00;0.00;;;;;;;11.03;100.00;97072.19;4960641;28;20023;-78
2024/01/02 10:27:15;;;;;;;0.00;0.00;;;;;;;11.03;100.00;97083.09;4950119;28;20023;-78
2024/01/02 10:30:16;;;;;;;;;;;;;;;;;;;;;
2024/01/02 10:35:41;;;;;;;0.00;0.00;;;;;;;10.86;100.00;97036.97;4907042;28;20094;-77
2024/01/02 10:38:15;;;;;;;;;;;;;;;11.11;100.00;97048.53;4943146;28;20058;-79
2024/01/02 10:40:50;;;;;;;0.00;0.00;;;;;;;11.06;100.00;97018.72;4953166;28;19920;-78
2024/01/02 10:43:38;;;;;;;0.10;0.10;;;;;;;11.08;100.00;97027.38;4933320;28;20028;-79
2024/01/02 10:46:33;;;;;;;0.00;0.00;;;;;;;11.14;100.00;97021.28;4926979;29;20042;-76
2024/01/02 10:49:34;;;;;;;0.00;0.00;;;;;;;11.07;100.00;96992.97;4929343;28;20054;-77
2024/01/02 10:52:30;;;;;;;0.00;0.00;;;;;;;11.12;100.00;96987.25;4940419;28;21116;-78
2024/01/02 11:02:56;;;;;;;;;;;;;;;;;;;;;
2024/01/02 11:09:26;;;;;;;0.00;0.00;;;;;;;11.43;100.00;96958.25;4866147;29;20036;-75
2024/01/02 11:12:16;;;;;;;0.00;0.00;;;;;;;11.41;100.00;96968.78;4860083;29;20132;-77
2024/01/02 11:15:11;;;;;;;0.00;0.00;;;;;;;11.11;100.00;96900.88;4906850;29;20111;-79
2024/01/02 11:18:04;;;;;;;0.00;0.00;;;;;;;11.26;100.00;96911.00;4939608;28;20423;-80
2024/01/02 11:21:12;;;;;;;;;;;;;;;;;;;;;
2024/01/02 11:23:42;;;;;;;0.00;0.00;;;;;;;11.47;100.00;96918.88;4945223;28;20026;-77
2024/01/02 11:26:46;;;;;;;0.00;0.00;;;;;;;11.33;100.00;96897.50;4952015;28;20082;-77
2024/01/02 11:29:36;;;;;;;;;;;;;;;;;;;;;
2024/01/02 11:35:05;;;;;;;0.00;0.00;;;;;;;11.35;100.00;96851.41;4954273;28;20069;-76
2024/01/02 11:37:39;;;;;;;0.00;0.00;;;;;;;11.57;100.00;96846.41;4957345;28;20026;-78
2024/01/02 11:44:39;;;;;;;0.00;0.00;;;;;;;11.64;100.00;96862.97;4844745;29;20025;-78
2024/01/02 11:47:51;;;;;;;0.00;0.00;;;;;;;11.58;100.00;96826.09;4888810;29;20040;-79
2024/01/02 11:50:29;;;;;;;0.00;0.00;;;;;;;11.64;100.00;96819.16;4881775;29;20047;-78
2024/01/02 11:53:01;;;;;;;0.00;0.00;;;;;;;11.39;100.00;96815.13;4902628;29;20034;-78
2024/01/02 11:55:56;;;;;;;0.00;0.00;;;;;;;11.50;100.00;96813.41;4948850;28;21323;-78
2024/01/02 11:58:53;;;;;;;0.00;0.00;;;;;;;11.56;100.00;96817.44;4961921;28;20096;-78
2024/01/02 12:01:27;;;;;;;0.10;0.10;;;;;;;11.57;100.00;96802.59;4963172;28;20681;-78
2024/01/02 12:04:05;;;;;;;;;;;;;;;11.62;100.00;96799.59;4973731;28;20042;-78
2024/01/02 12:06:52;;;;;;;0.00;0.00;;;;;;;11.58;100.00;96763.16;4951001;28;19920;-78
2024/01/02 12:09:27;;;;;;;0.10;0.10;;;;;;;11.54;100.00;96748.63;4978652;28;20099;-77
2024/01/02 12:12:18;;;;;;;0.00;0.00;;;;;;;11.69;100.00;96763.34;4949831;28;20033;-77
2024/01/02 12:15:10;;;;;;;0.00;0.00;;;;;;;11.67;100.00;96765.66;4968807;28;20109;-78
2024/01/02 12:17:54;;;;;;;0.10;0.10;;;;;;;11.52;100.00;96718.06;4972310;28;20043;-78
2024/01/02 12:20:51;;;;;;;;;;;;;;;;;;;;;
2024/01/02 12:23:29;;;;;;;0.10;0.10;;;;;;;11.32;100.00;96693.50;4966671;28;20037;-78
2024/01/02 12:26:04;;;;;;;0.00;0.00;;;;;;;11.28;100.00;96695.38;4964137;28;20034;-78
2024/01/02 12:28:33;;;;;;;0.10;0.10;;;;;;;11.41;100.00;96684.28;4954398;28;20030;-79
2024/01/02 12:31:19;;;;;;;0.00;0.00;;;;;;;11.40;100.00;96678.00;4962946;28;20524;-77
2024/01/02 12:34:26;;;;;;;0.00;0.00;;;;;;;11.43;100.00;96676.47;4959254;28;20018;-78
2024/01/02 12:37:12;;;;;;;0.10;0.10;;;;;;;11.57;100.00;96674.00;4938302;28;20450;-78
2024/01/02 12:40:03;;;;;;;0.00;0.00;;;;;;;11.45;100.00;96641.38;4959168;28;20130;-77
2024/01/02 12:42:46;;;;;;;;;;;;;;;;;;;;;
2024/01/02 12:45:22;;;;;;;0.00;0.00;;;;;;;11.17;100.00;96588.53;4968603;28;20090;-78
2024/01/02 12:48:05;;;;;;;0.00;0.00;;;;;;;11.25;100.00;96611.31;4965547;28;20019;-77
2024/01/02 12:50:34;;;;;;;0.00;0.00;;;;;;;11.19;100.00;96601.84;4954906;28;20011;-77
2024/01/02 12:53:09;;;;;;;0.00;0.00;;;;;;;11.27;100.00;96630.91;4973308;28;20022;-75